sensor_id;sensor_type;location;lat;lon;timestamp;P1;durP1;ratioP1;P2;durP2;ratioP2
51495;SDS011;37572;52.094;4.870;2023-03-23T00:02:26;7.95;;;3.67;;
51495;SDS011;37572;52.094;4.870;2023-03-23T00:04:52;7.45;;;3.33;;
51495;SDS011;37572;52.094;4.870;2023-03-23T00:07:18;6.03;;;3.20;;
51495;SDS011;37572;52.094;4.870;2023-03-23T00:09:46;5.88;;;3.42;;
51495;SDS011;37572;52.094;4.870;2023-03-23T00:12:12;10.07;;;3.65;;
51495;SDS011;37572;52.094;4.870;2023-03-23T00:14:40;9.75;;;4.55;;
51495;SDS011;37572;52.094;4.870;2023-03-23T00:17:08;6.93;;;3.60;;
51495;SDS011;37572;52.094;4.870;2023-03-23T00:19:36;4.72;;;2.92;;
51495;SDS011;37572;52.094;4.870;2023-03-23T00:22:10;7.20;;;3.42;;
51495;SDS011;37572;52.094;4.870;2023-03-23T00:24:35;6.37;;;3.53;;
51495;SDS011;37572;52.094;4.870;2023-03-23T00:27:01;4.68;;;2.70;;
51495;SDS011;37572;52.094;4.870;2023-03-23T00:29:28;5.10;;;2.88;;
51495;SDS011;37572;52.094;4.870;2023-03-23T00:31:53;4.63;;;2.83;;
51495;SDS011;37572;52.094;4.870;2023-03-23T00:34:19;7.33;;;3.63;;
51495;SDS011;37572;52.094;4.870;2023-03-23T00:36:46;6.82;;;3.00;;
51495;SDS011;37572;52.094;4.870;2023-03-23T00:39:11;5.25;;;2.65;;
51495;SDS011;37572;52.094;4.870;2023-03-23T00:41:37;6.25;;;2.30;;
51495;SDS011;37572;52.094;4.870;2023-03-23T00:44:03;7.30;;;2.90;;
51495;SDS011;37572;52.094;4.870;2023-03-23T00:46:28;5.03;;;2.93;;
51495;SDS011;37572;52.094;4.870;2023-03-23T00:48:54;5.30;;;2.50;;
51495;SDS011;37572;52.094;4.870;2023-03-23T00:51:21;6.90;;;2.50;;
51495;SDS011;37572;52.094;4.870;2023-03-23T00:53:46;5.40;;;2.43;;
51495;SDS011;37572;52.094;4.870;2023-03-23T00:56:12;6.05;;;2.72;;
51495;SDS011;37572;52.094;4.870;2023-03-23T00:58:38;6.40;;;2.65;;
51495;SDS011;37572;52.094;4.870;2023-03-23T01:01:03;4.53;;;2.50;;
51495;SDS011;37572;52.094;4.870;2023-03-23T01:03:29;3.90;;;1.85;;
51495;SDS011;37572;52.094;4.870;2023-03-23T01:05:54;5.03;;;2.27;;
51495;SDS011;37572;52.094;4.870;2023-03-23T01:08:20;4.35;;;2.35;;
51495;SDS011;37572;52.094;4.870;2023-03-23T01:10:46;4.60;;;2.42;;
51495;SDS011;37572;52.094;4.870;2023-03-23T01:13:11;4.03;;;2.25;;
51495;SDS011;37572;52.094;4.870;2023-03-23T01:15:37;5.55;;;2.13;;
51495;SDS011;37572;52.094;4.870;2023-03-23T01:18:02;4.90;;;2.30;;
51495;SDS011;37572;52.094;4.870;2023-03-23T01:20:28;4.30;;;2.35;;
51495;SDS011;37572;52.094;4.870;2023-03-23T01:22:56;6.53;;;2.60;;
51495;SDS011;37572;52.094;4.870;2023-03-23T01:25:25;4.03;;;2.33;;
51495;SDS011;37572;52.094;4.870;2023-03-23T01:27:51;3.92;;;2.22;;
51495;SDS011;37572;52.094;4.870;2023-03-23T01:30:16;4.23;;;2.20;;
51495;SDS011;37572;52.094;4.870;2023-03-23T01:32:41;4.72;;;2.30;;
51495;SDS011;37572;52.094;4.870;2023-03-23T01:35:07;5.10;;;2.10;;
51495;SDS011;37572;52.094;4.870;2023-03-23T01:37:32;4.45;;;2.72;;
51495;SDS011;37572;52.094;4.870;2023-03-23T01:39:57;4.65;;;1.95;;
51495;SDS011;37572;52.094;4.870;2023-03-23T01:42:23;4.57;;;2.80;;
51495;SDS011;37572;52.094;4.870;2023-03-23T01:47:14;5.50;;;1.90;;
51495;SDS011;37572;52.094;4.870;2023-03-23T01:49:41;4.63;;;2.35;;
51495;SDS011;37572;52.094;4.870;2023-03-23T01:52:09;5.00;;;2.10;;
51495;SDS011;37572;52.094;4.870;2023-03-23T01:54:38;3.45;;;1.65;;
51495;SDS011;37572;52.094;4.870;2023-03-23T01:57:09;5.05;;;2.25;;
51495;SDS011;37572;52.094;4.870;2023-03-23T01:59:35;3.97;;;2.00;;
51495;SDS011;37572;52.094;4.870;2023-03-23T02:02:01;5.85;;;2.60;;
51495;SDS011;37572;52.094;4.870;2023-03-23T02:04:27;3.78;;;1.95;;
51495;SDS011;37572;52.094;4.870;2023-03-23T02:06:53;6.00;;;2.60;;
51495;SDS011;37572;52.094;4.870;2023-03-23T02:09:19;4.90;;;2.20;;
51495;SDS011;37572;52.094;4.870;2023-03-23T02:11:47;5.17;;;2.10;;
51495;SDS011;37572;52.094;4.870;2023-03-23T02:14:14;4.55;;;2.35;;
51495;SDS011;37572;52.094;4.870;2023-03-23T02:16:43;4.40;;;3.08;;
51495;SDS011;37572;52.094;4.870;2023-03-23T02:26:59;4.47;;;2.30;;
51495;SDS011;37572;52.094;4.870;2023-03-23T02:34:47;4.40;;;2.58;;
51495;SDS011;37572;52.094;4.870;2023-03-23T02:37:14;4.40;;;2.22;;
51495;SDS011;37572;52.094;4.870;2023-03-23T02:39:46;4.38;;;2.33;;
51495;SDS011;37572;52.094;4.870;2023-03-23T02:42:13;4.30;;;2.05;;
51495;SDS011;37572;52.094;4.870;2023-03-23T02:44:41;3.97;;;1.92;;
51495;SDS011;37572;52.094;4.870;2023-03-23T02:47:11;4.30;;;2.22;;
51495;SDS011;37572;52.094;4.870;2023-03-23T02:49:37;4.82;;;2.30;;
51495;SDS011;37572;52.094;4.870;2023-03-23T02:52:08;4.38;;;2.53;;
51495;SDS011;37572;52.094;4.870;2023-03-23T02:54:34;3.85;;;2.00;;
51495;SDS011;37572;52.094;4.870;2023-03-23T02:56:59;5.78;;;2.40;;
51495;SDS011;37572;52.094;4.870;2023-03-23T02:59:26;4.65;;;1.92;;
51495;SDS011;37572;52.094;4.870;2023-03-23T03:04:23;5.07;;;2.00;;
51495;SDS011;37572;52.094;4.870;2023-03-23T03:06:55;9.63;;;2.38;;
51495;SDS011;37572;52.094;4.870;2023-03-23T03:11:58;3.70;;;1.85;;
51495;SDS011;37572;52.094;4.870;2023-03-23T03:14:30;5.18;;;2.58;;
51495;SDS011;37572;52.094;4.870;2023-03-23T03:17:05;4.82;;;1.83;;
51495;SDS011;37572;52.094;4.870;2023-03-23T03:19:37;6.47;;;2.20;;
51495;SDS011;37572;52.094;4.870;2023-03-23T03:22:04;3.92;;;2.00;;
51495;SDS011;37572;52.094;4.870;2023-03-23T03:24:29;5.10;;;2.15;;
51495;SDS011;37572;52.094;4.870;2023-03-23T03:26:56;5.10;;;2.22;;
51495;SDS011;37572;52.094;4.870;2023-03-23T03:29:29;5.15;;;1.92;;
51495;SDS011;37572;52.094;4.870;2023-03-23T03:31:55;5.00;;;1.95;;
51495;SDS011;37572;52.094;4.870;2023-03-23T03:34:21;5.25;;;1.88;;
51495;SDS011;37572;52.094;4.870;2023-03-23T03:36:49;5.72;;;2.30;;
51495;SDS011;37572;52.094;4.870;2023-03-23T03:39:16;4.75;;;2.30;;
51495;SDS011;37572;52.094;4.870;2023-03-23T03:41:42;4.50;;;2.08;;
51495;SDS011;37572;52.094;4.870;2023-03-23T03:44:08;4.55;;;2.03;;
51495;SDS011;37572;52.094;4.870;2023-03-23T03:46:34;4.67;;;2.33;;
51495;SDS011;37572;52.094;4.870;2023-03-23T03:49:00;6.63;;;2.50;;
51495;SDS011;37572;52.094;4.870;2023-03-23T03:51:26;5.13;;;2.05;;
51495;SDS011;37572;52.094;4.870;2023-03-23T03:53:52;3.95;;;2.20;;
51495;SDS011;37572;52.094;4.870;2023-03-23T03:56:17;6.17;;;2.10;;
51495;SDS011;37572;52.094;4.870;2023-03-23T03:58:42;5.13;;;2.27;;
51495;SDS011;37572;52.094;4.870;2023-03-23T04:01:08;5.68;;;2.20;;
51495;SDS011;37572;52.094;4.870;2023-03-23T04:03:35;5.78;;;2.47;;
51495;SDS011;37572;52.094;4.870;2023-03-23T04:06:00;7.30;;;2.33;;
51495;SDS011;37572;52.094;4.870;2023-03-23T04:08:26;5.47;;;2.53;;
51495;SDS011;37572;52.094;4.870;2023-03-23T04:10:51;7.90;;;2.42;;
51495;SDS011;37572;52.094;4.870;2023-03-23T04:13:17;4.93;;;2.25;;
51495;SDS011;37572;52.094;4.870;2023-03-23T04:15:43;4.90;;;1.83;;
51495;SDS011;37572;52.094;4.870;2023-03-23T04:18:08;6.95;;;2.22;;
51495;SDS011;37572;52.094;4.870;2023-03-23T04:20:34;7.90;;;2.33;;
51495;SDS011;37572;52.094;4.870;2023-03-23T04:22:59;3.83;;;1.95;;
51495;SDS011;37572;52.094;4.870;2023-03-23T04:25:25;6.20;;;1.63;;
51495;SDS011;37572;52.094;4.870;2023-03-23T04:27:51;7.00;;;1.77;;
51495;SDS011;37572;52.094;4.870;2023-03-23T04:30:20;5.28;;;1.90;;
51495;SDS011;37572;52.094;4.870;2023-03-23T04:32:46;4.65;;;2.05;;
51495;SDS011;37572;52.094;4.870;2023-03-23T04:35:15;4.80;;;1.73;;
51495;SDS011;37572;52.094;4.870;2023-03-23T04:37:41;6.18;;;1.77;;
51495;SDS011;37572;52.094;4.870;2023-03-23T04:40:08;4.72;;;1.75;;
51495;SDS011;37572;52.094;4.870;2023-03-23T04:42:39;8.18;;;1.95;;
51495;SDS011;37572;52.094;4.870;2023-03-23T04:45:05;10.52;;;2.78;;
51495;SDS011;37572;52.094;4.870;2023-03-23T04:47:31;4.32;;;1.70;;
51495;SDS011;37572;52.094;4.870;2023-03-23T04:49:57;5.75;;;1.67;;
51495;SDS011;37572;52.094;4.870;2023-03-23T04:52:24;6.13;;;1.80;;
51495;SDS011;37572;52.094;4.870;2023-03-23T04:54:50;7.32;;;1.92;;
51495;SDS011;37572;52.094;4.870;2023-03-23T04:57:15;9.20;;;2.35;;
51495;SDS011;37572;52.094;4.870;2023-03-23T04:59:41;10.37;;;2.10;;
51495;SDS011;37572;52.094;4.870;2023-03-23T05:02:06;11.25;;;2.75;;
51495;SDS011;37572;52.094;4.870;2023-03-23T05:04:31;8.93;;;1.93;;
51495;SDS011;37572;52.094;4.870;2023-03-23T05:06:58;7.30;;;2.00;;
51495;SDS011;37572;52.094;4.870;2023-03-23T05:09:23;6.37;;;1.83;;
51495;SDS011;37572;52.094;4.870;2023-03-23T05:11:48;8.40;;;2.37;;
51495;SDS011;37572;52.094;4.870;2023-03-23T05:14:13;10.60;;;2.27;;
51495;SDS011;37572;52.094;4.870;2023-03-23T05:16:39;10.60;;;4.43;;
51495;SDS011;37572;52.094;4.870;2023-03-23T05:19:05;6.93;;;2.60;;
51495;SDS011;37572;52.094;4.870;2023-03-23T05:21:30;9.50;;;2.27;;
51495;SDS011;37572;52.094;4.870;2023-03-23T05:23:55;10.73;;;2.53;;
51495;SDS011;37572;52.094;4.870;2023-03-23T05:26:21;7.23;;;2.70;;
51495;SDS011;37572;52.094;4.870;2023-03-23T05:28:47;10.00;;;2.15;;
51495;SDS011;37572;52.094;4.870;2023-03-23T05:31:13;4.32;;;2.00;;
51495;SDS011;37572;52.094;4.870;2023-03-23T05:33:38;6.70;;;2.70;;
51495;SDS011;37572;52.094;4.870;2023-03-23T05:36:03;6.17;;;2.50;;
51495;SDS011;37572;52.094;4.870;2023-03-23T05:38:31;6.53;;;2.10;;
51495;SDS011;37572;52.094;4.870;2023-03-23T05:40:58;7.63;;;2.30;;
51495;SDS011;37572;52.094;4.870;2023-03-23T05:43:25;8.55;;;2.70;;
51495;SDS011;37572;52.094;4.870;2023-03-23T05:45:51;9.60;;;3.47;;
51495;SDS011;37572;52.094;4.870;2023-03-23T05:48:16;7.40;;;2.43;;
51495;SDS011;37572;52.094;4.870;2023-03-23T05:50:41;9.27;;;2.33;;
51495;SDS011;37572;52.094;4.870;2023-03-23T05:53:06;7.40;;;2.73;;
51495;SDS011;37572;52.094;4.870;2023-03-23T05:55:31;9.47;;;2.63;;
51495;SDS011;37572;52.094;4.870;2023-03-23T05:57:57;10.63;;;2.70;;
51495;SDS011;37572;52.094;4.870;2023-03-23T06:00:23;7.88;;;2.83;;
51495;SDS011;37572;52.094;4.870;2023-03-23T06:02:49;13.55;;;3.05;;
51495;SDS011;37572;52.094;4.870;2023-03-23T06:05:15;8.27;;;2.78;;
51495;SDS011;37572;52.094;4.870;2023-03-23T06:07:41;9.75;;;3.53;;
51495;SDS011;37572;52.094;4.870;2023-03-23T06:10:07;5.18;;;2.58;;
51495;SDS011;37572;52.094;4.870;2023-03-23T06:12:34;8.32;;;2.72;;
51495;SDS011;37572;52.094;4.870;2023-03-23T06:14:59;9.15;;;2.92;;
51495;SDS011;37572;52.094;4.870;2023-03-23T06:17:24;7.40;;;3.17;;
51495;SDS011;37572;52.094;4.870;2023-03-23T06:19:50;9.88;;;3.38;;
51495;SDS011;37572;52.094;4.870;2023-03-23T06:22:15;7.30;;;2.63;;
51495;SDS011;37572;52.094;4.870;2023-03-23T06:24:41;12.52;;;3.50;;
51495;SDS011;37572;52.094;4.870;2023-03-23T06:27:06;9.37;;;3.17;;
51495;SDS011;37572;52.094;4.870;2023-03-23T06:29:33;9.98;;;3.25;;
51495;SDS011;37572;52.094;4.870;2023-03-23T06:31:58;8.23;;;3.53;;
51495;SDS011;37572;52.094;4.870;2023-03-23T06:34:25;8.45;;;3.65;;
51495;SDS011;37572;52.094;4.870;2023-03-23T06:36:50;10.27;;;3.50;;
51495;SDS011;37572;52.094;4.870;2023-03-23T06:39:15;11.70;;;4.27;;
51495;SDS011;37572;52.094;4.870;2023-03-23T06:41:41;7.28;;;3.80;;
51495;SDS011;37572;52.094;4.870;2023-03-23T06:44:07;13.53;;;3.73;;
51495;SDS011;37572;52.094;4.870;2023-03-23T06:46:33;14.77;;;3.75;;
51495;SDS011;37572;52.094;4.870;2023-03-23T06:48:58;11.77;;;3.50;;
51495;SDS011;37572;52.094;4.870;2023-03-23T06:51:24;9.23;;;4.10;;
51495;SDS011;37572;52.094;4.870;2023-03-23T06:53:49;10.48;;;3.70;;
51495;SDS011;37572;52.094;4.870;2023-03-23T06:56:15;9.20;;;4.33;;
51495;SDS011;37572;52.094;4.870;2023-03-23T06:58:40;12.25;;;3.90;;
51495;SDS011;37572;52.094;4.870;2023-03-23T07:01:07;11.40;;;3.92;;
51495;SDS011;37572;52.094;4.870;2023-03-23T07:03:33;12.68;;;3.80;;
51495;SDS011;37572;52.094;4.870;2023-03-23T07:05:59;6.75;;;3.30;;
51495;SDS011;37572;52.094;4.870;2023-03-23T07:08:24;9.90;;;3.60;;
51495;SDS011;37572;52.094;4.870;2023-03-23T07:10:53;10.63;;;2.90;;
51495;SDS011;37572;52.094;4.870;2023-03-23T07:13:19;8.57;;;4.28;;
51495;SDS011;37572;52.094;4.870;2023-03-23T07:15:45;8.05;;;3.15;;
51495;SDS011;37572;52.094;4.870;2023-03-23T07:18:10;7.68;;;3.00;;
51495;SDS011;37572;52.094;4.870;2023-03-23T07:20:35;9.30;;;3.50;;
51495;SDS011;37572;52.094;4.870;2023-03-23T07:23:01;9.57;;;2.97;;
51495;SDS011;37572;52.094;4.870;2023-03-23T07:25:27;9.43;;;2.83;;
51495;SDS011;37572;52.094;4.870;2023-03-23T07:27:52;10.30;;;2.60;;
51495;SDS011;37572;52.094;4.870;2023-03-23T07:30:17;6.70;;;2.57;;
51495;SDS011;37572;52.094;4.870;2023-03-23T07:32:42;8.98;;;2.30;;
51495;SDS011;37572;52.094;4.870;2023-03-23T07:35:09;12.07;;;2.70;;
51495;SDS011;37572;52.094;4.870;2023-03-23T07:37:35;8.25;;;2.63;;
51495;SDS011;37572;52.094;4.870;2023-03-23T07:40:01;9.63;;;2.65;;
51495;SDS011;37572;52.094;4.870;2023-03-23T07:42:39;9.75;;;1.55;;
51495;SDS011;37572;52.094;4.870;2023-03-23T07:45:04;6.23;;;1.87;;
51495;SDS011;37572;52.094;4.870;2023-03-23T07:47:30;11.10;;;2.53;;
51495;SDS011;37572;52.094;4.870;2023-03-23T07:49:56;9.43;;;2.33;;
51495;SDS011;37572;52.094;4.870;2023-03-23T07:52:21;9.53;;;2.83;;
51495;SDS011;37572;52.094;4.870;2023-03-23T07:54:47;9.45;;;1.98;;
51495;SDS011;37572;52.094;4.870;2023-03-23T07:57:12;5.93;;;2.07;;
51495;SDS011;37572;52.094;4.870;2023-03-23T07:59:37;7.73;;;1.83;;
51495;SDS011;37572;52.094;4.870;2023-03-23T08:02:02;9.23;;;2.30;;
51495;SDS011;37572;52.094;4.870;2023-03-23T08:04:27;7.07;;;2.13;;
51495;SDS011;37572;52.094;4.870;2023-03-23T08:06:53;5.03;;;1.60;;
51495;SDS011;37572;52.094;4.870;2023-03-23T08:09:18;9.30;;;2.27;;
51495;SDS011;37572;52.094;4.870;2023-03-23T08:11:43;4.87;;;1.77;;
51495;SDS011;37572;52.094;4.870;2023-03-23T08:14:08;6.87;;;2.83;;
51495;SDS011;37572;52.094;4.870;2023-03-23T08:16:33;6.37;;;2.00;;
51495;SDS011;37572;52.094;4.870;2023-03-23T08:18:59;5.90;;;1.80;;
51495;SDS011;37572;52.094;4.870;2023-03-23T08:21:24;7.93;;;2.25;;
51495;SDS011;37572;52.094;4.870;2023-03-23T08:23:51;7.38;;;2.10;;
51495;SDS011;37572;52.094;4.870;2023-03-23T08:26:17;7.05;;;2.60;;
51495;SDS011;37572;52.094;4.870;2023-03-23T08:28:42;6.93;;;2.17;;
51495;SDS011;37572;52.094;4.870;2023-03-23T08:31:12;8.13;;;2.72;;
51495;SDS011;37572;52.094;4.870;2023-03-23T08:33:38;8.68;;;2.60;;
51495;SDS011;37572;52.094;4.870;2023-03-23T08:36:04;12.93;;;2.88;;
51495;SDS011;37572;52.094;4.870;2023-03-23T08:38:29;6.50;;;2.70;;
51495;SDS011;37572;52.094;4.870;2023-03-23T08:41:02;8.80;;;2.75;;
51495;SDS011;37572;52.094;4.870;2023-03-23T08:43:29;6.95;;;2.50;;
51495;SDS011;37572;52.094;4.870;2023-03-23T08:45:54;6.78;;;2.10;;
51495;SDS011;37572;52.094;4.870;2023-03-23T08:48:20;7.30;;;2.23;;
51495;SDS011;37572;52.094;4.870;2023-03-23T08:50:46;7.75;;;2.25;;
51495;SDS011;37572;52.094;4.870;2023-03-23T08:53:13;8.03;;;2.47;;
51495;SDS011;37572;52.094;4.870;2023-03-23T08:55:38;10.82;;;2.75;;
51495;SDS011;37572;52.094;4.870;2023-03-23T08:58:04;9.65;;;2.67;;
51495;SDS011;37572;52.094;4.870;2023-03-23T09:00:29;7.93;;;2.80;;
51495;SDS011;37572;52.094;4.870;2023-03-23T09:02:55;9.50;;;2.53;;
51495;SDS011;37572;52.094;4.870;2023-03-23T09:05:22;9.15;;;3.08;;
51495;SDS011;37572;52.094;4.870;2023-03-23T09:07:50;14.18;;;3.95;;
51495;SDS011;37572;52.094;4.870;2023-03-23T09:10:15;10.57;;;3.17;;
51495;SDS011;37572;52.094;4.870;2023-03-23T09:12:41;8.60;;;2.75;;
51495;SDS011;37572;52.094;4.870;2023-03-23T09:15:07;13.55;;;2.72;;
51495;SDS011;37572;52.094;4.870;2023-03-23T09:17:37;12.23;;;2.95;;
51495;SDS011;37572;52.094;4.870;2023-03-23T09:20:04;12.48;;;4.50;;
51495;SDS011;37572;52.094;4.870;2023-03-23T09:22:37;9.80;;;2.80;;
51495;SDS011;37572;52.094;4.870;2023-03-23T09:25:03;7.72;;;2.72;;
51495;SDS011;37572;52.094;4.870;2023-03-23T09:27:28;11.82;;;2.42;;
51495;SDS011;37572;52.094;4.870;2023-03-23T09:29:54;9.70;;;2.40;;
51495;SDS011;37572;52.094;4.870;2023-03-23T09:32:20;9.10;;;2.30;;
51495;SDS011;37572;52.094;4.870;2023-03-23T09:34:47;11.10;;;2.60;;
51495;SDS011;37572;52.094;4.870;2023-03-23T09:37:12;11.33;;;2.63;;
51495;SDS011;37572;52.094;4.870;2023-03-23T09:39:39;10.05;;;2.03;;
51495;SDS011;37572;52.094;4.870;2023-03-23T09:47:11;10.30;;;2.80;;
51495;SDS011;37572;52.094;4.870;2023-03-23T09:49:47;12.80;;;4.00;;
51495;SDS011;37572;52.094;4.870;2023-03-23T09:52:14;8.52;;;2.20;;
51495;SDS011;37572;52.094;4.870;2023-03-23T09:54:41;8.63;;;2.08;;
51495;SDS011;37572;52.094;4.870;2023-03-23T10:02:14;9.48;;;2.33;;
51495;SDS011;37572;52.094;4.870;2023-03-23T10:04:49;9.40;;;3.15;;
51495;SDS011;37572;52.094;4.870;2023-03-23T10:07:17;9.15;;;2.22;;
51495;SDS011;37572;52.094;4.870;2023-03-23T10:09:44;10.23;;;2.17;;
51495;SDS011;37572;52.094;4.870;2023-03-23T10:12:17;8.77;;;2.60;;
51495;SDS011;37572;52.094;4.870;2023-03-23T10:17:29;10.98;;;2.72;;
51495;SDS011;37572;52.094;4.870;2023-03-23T10:22:35;9.87;;;2.03;;
51495;SDS011;37572;52.094;4.870;2023-03-23T10:27:38;6.00;;;1.70;;
51495;SDS011;37572;52.094;4.870;2023-03-23T10:32:38;8.07;;;1.65;;
51495;SDS011;37572;52.094;4.870;2023-03-23T10:35:05;7.20;;;2.30;;
51495;SDS011;37572;52.094;4.870;2023-03-23T10:37:32;11.88;;;1.80;;
51495;SDS011;37572;52.094;4.870;2023-03-23T10:40:01;9.98;;;2.13;;
51495;SDS011;37572;52.094;4.870;2023-03-23T10:42:35;9.07;;;2.10;;
51495;SDS011;37572;52.094;4.870;2023-03-23T10:47:39;9.63;;;2.85;;
51495;SDS011;37572;52.094;4.870;2023-03-23T10:50:06;16.83;;;3.00;;
51495;SDS011;37572;52.094;4.870;2023-03-23T10:52:37;8.45;;;1.75;;
51495;SDS011;37572;52.094;4.870;2023-03-23T10:55:04;10.95;;;2.50;;
51495;SDS011;37572;52.094;4.870;2023-03-23T10:57:31;11.40;;;2.20;;
51495;SDS011;37572;52.094;4.870;2023-03-23T11:00:16;9.82;;;1.98;;
51495;SDS011;37572;52.094;4.870;2023-03-23T11:02:47;8.65;;;1.98;;
51495;SDS011;37572;52.094;4.870;2023-03-23T11:05:18;9.77;;;2.00;;
51495;SDS011;37572;52.094;4.870;2023-03-23T11:07:47;12.32;;;2.83;;
51495;SDS011;37572;52.094;4.870;2023-03-23T11:10:19;11.90;;;2.40;;
51495;SDS011;37572;52.094;4.870;2023-03-23T11:12:45;12.00;;;2.28;;
51495;SDS011;37572;52.094;4.870;2023-03-23T11:17:54;8.73;;;2.15;;
51495;SDS011;37572;52.094;4.870;2023-03-23T11:20:20;7.30;;;1.90;;
51495;SDS011;37572;52.094;4.870;2023-03-23T11:22:45;8.87;;;2.47;;
51495;SDS011;37572;52.094;4.870;2023-03-23T11:25:12;7.35;;;2.03;;
51495;SDS011;37572;52.094;4.870;2023-03-23T11:27:38;12.68;;;2.20;;
51495;SDS011;37572;52.094;4.870;2023-03-23T11:30:11;12.02;;;2.28;;
51495;SDS011;37572;52.094;4.870;2023-03-23T11:32:43;7.95;;;1.98;;
51495;SDS011;37572;52.094;4.870;2023-03-23T11:35:20;9.60;;;2.60;;
51495;SDS011;37572;52.094;4.870;2023-03-23T11:37:58;9.95;;;2.15;;
51495;SDS011;37572;52.094;4.870;2023-03-23T11:40:25;9.25;;;2.78;;
51495;SDS011;37572;52.094;4.870;2023-03-23T11:45:24;7.65;;;2.03;;
51495;SDS011;37572;52.094;4.870;2023-03-23T11:50:20;11.23;;;2.13;;
51495;SDS011;37572;52.094;4.870;2023-03-23T11:58:24;11.35;;;2.40;;
51495;SDS011;37572;52.094;4.870;2023-03-23T12:00:55;9.93;;;2.15;;
51495;SDS011;37572;52.094;4.870;2023-03-23T12:03:21;9.77;;;2.30;;
51495;SDS011;37572;52.094;4.870;2023-03-23T12:05:56;7.43;;;1.80;;
51495;SDS011;37572;52.094;4.870;2023-03-23T12:11:18;9.23;;;2.40;;
51495;SDS011;37572;52.094;4.870;2023-03-23T12:21:36;8.15;;;1.92;;
51495;SDS011;37572;52.094;4.870;2023-03-23T12:26:44;7.28;;;1.58;;
51495;SDS011;37572;52.094;4.870;2023-03-23T12:32:22;4.53;;;1.20;;
51495;SDS011;37572;52.094;4.870;2023-03-23T12:37:19;6.17;;;1.37;;
51495;SDS011;37572;52.094;4.870;2023-03-23T12:39:56;5.50;;;1.50;;
51495;SDS011;37572;52.094;4.870;2023-03-23T12:45:04;9.48;;;1.85;;
51495;SDS011;37572;52.094;4.870;2023-03-23T12:47:47;8.52;;;1.60;;
51495;SDS011;37572;52.094;4.870;2023-03-23T12:50:23;8.88;;;1.73;;
51495;SDS011;37572;52.094;4.870;2023-03-23T12:58:04;9.30;;;1.77;;
51495;SDS011;37572;52.094;4.870;2023-03-23T13:03:19;10.10;;;1.75;;
51495;SDS011;37572;52.094;4.870;2023-03-23T13:05:49;5.50;;;1.60;;
51495;SDS011;37572;52.094;4.870;2023-03-23T13:11:17;5.05;;;1.98;;
51495;SDS011;37572;52.094;4.870;2023-03-23T13:13:51;7.40;;;1.80;;
51495;SDS011;37572;52.094;4.870;2023-03-23T13:16:22;6.38;;;1.67;;
51495;SDS011;37572;52.094;4.870;2023-03-23T13:22:08;8.35;;;1.58;;
51495;SDS011;37572;52.094;4.870;2023-03-23T13:24:25;6.32;;;1.63;;
51495;SDS011;37572;52.094;4.870;2023-03-23T13:26:51;7.93;;;1.85;;
51495;SDS011;37572;52.094;4.870;2023-03-23T13:29:19;7.30;;;1.52;;
51495;SDS011;37572;52.094;4.870;2023-03-23T13:31:46;7.65;;;1.35;;
51495;SDS011;37572;52.094;4.870;2023-03-23T13:34:16;7.15;;;1.35;;
51495;SDS011;37572;52.094;4.870;2023-03-23T13:36:43;7.72;;;1.80;;
51495;SDS011;37572;52.094;4.870;2023-03-23T13:39:22;7.93;;;1.67;;
51495;SDS011;37572;52.094;4.870;2023-03-23T13:41:58;5.18;;;1.35;;
51495;SDS011;37572;52.094;4.870;2023-03-23T13:44:25;8.90;;;2.40;;
51495;SDS011;37572;52.094;4.870;2023-03-23T13:46:54;10.63;;;2.30;;
51495;SDS011;37572;52.094;4.870;2023-03-23T13:49:20;8.23;;;2.78;;
51495;SDS011;37572;52.094;4.870;2023-03-23T13:51:51;8.75;;;2.25;;
51495;SDS011;37572;52.094;4.870;2023-03-23T14:04:17;10.65;;;1.98;;
51495;SDS011;37572;52.094;4.870;2023-03-23T14:06:44;8.63;;;1.92;;
51495;SDS011;37572;52.094;4.870;2023-03-23T14:14:17;8.02;;;2.17;;
51495;SDS011;37572;52.094;4.870;2023-03-23T14:16:44;7.28;;;2.33;;
51495;SDS011;37572;52.094;4.870;2023-03-23T14:19:24;10.75;;;1.60;;
51495;SDS011;37572;52.094;4.870;2023-03-23T14:21:59;7.10;;;2.03;;
51495;SDS011;37572;52.094;4.870;2023-03-23T14:24:29;11.82;;;1.83;;
51495;SDS011;37572;52.094;4.870;2023-03-23T14:27:28;10.95;;;3.22;;
51495;SDS011;37572;52.094;4.870;2023-03-23T14:29:57;8.73;;;2.08;;
51495;SDS011;37572;52.094;4.870;2023-03-23T14:32:22;8.68;;;1.70;;
51495;SDS011;37572;52.094;4.870;2023-03-23T14:34:51;7.00;;;1.85;;
51495;SDS011;37572;52.094;4.870;2023-03-23T14:37:16;8.82;;;2.65;;
51495;SDS011;37572;52.094;4.870;2023-03-23T14:39:45;10.03;;;1.83;;
51495;SDS011;37572;52.094;4.870;2023-03-23T14:42:15;7.88;;;1.98;;
51495;SDS011;37572;52.094;4.870;2023-03-23T14:44:43;8.63;;;1.50;;
51495;SDS011;37572;52.094;4.870;2023-03-23T14:47:19;8.15;;;1.67;;
51495;SDS011;37572;52.094;4.870;2023-03-23T14:49:45;5.43;;;1.42;;
51495;SDS011;37572;52.094;4.870;2023-03-23T14:52:12;9.07;;;2.33;;
51495;SDS011;37572;52.094;4.870;2023-03-23T14:54:37;8.13;;;1.70;;
51495;SDS011;37572;52.094;4.870;2023-03-23T14:57:17;9.70;;;1.98;;
51495;SDS011;37572;52.094;4.870;2023-03-23T14:59:43;9.98;;;1.85;;
51495;SDS011;37572;52.094;4.870;2023-03-23T15:04:59;5.88;;;1.50;;
51495;SDS011;37572;52.094;4.870;2023-03-23T15:07:30;7.95;;;1.85;;
51495;SDS011;37572;52.094;4.870;2023-03-23T15:09:55;7.10;;;1.98;;
51495;SDS011;37572;52.094;4.870;2023-03-23T15:12:22;11.13;;;2.33;;
51495;SDS011;37572;52.094;4.870;2023-03-23T15:14:49;10.23;;;1.83;;
51495;SDS011;37572;52.094;4.870;2023-03-23T15:17:18;8.23;;;1.88;;
51495;SDS011;37572;52.094;4.870;2023-03-23T15:19:44;6.43;;;1.55;;
51495;SDS011;37572;52.094;4.870;2023-03-23T15:24:45;12.27;;;2.17;;
51495;SDS011;37572;52.094;4.870;2023-03-23T15:29:51;7.93;;;2.13;;
51495;SDS011;37572;52.094;4.870;2023-03-23T15:32:25;10.15;;;2.30;;
51495;SDS011;37572;52.094;4.870;2023-03-23T15:34:50;12.02;;;2.58;;
51495;SDS011;37572;52.094;4.870;2023-03-23T15:37:18;8.30;;;2.22;;
51495;SDS011;37572;52.094;4.870;2023-03-23T15:39:45;6.88;;;2.53;;
51495;SDS011;37572;52.094;4.870;2023-03-23T15:42:20;6.22;;;2.13;;
51495;SDS011;37572;52.094;4.870;2023-03-23T15:44:53;8.02;;;1.88;;
51495;SDS011;37572;52.094;4.870;2023-03-23T15:47:20;14.43;;;2.40;;
51495;SDS011;37572;52.094;4.870;2023-03-23T15:49:46;8.25;;;1.92;;
51495;SDS011;37572;52.094;4.870;2023-03-23T15:52:13;9.38;;;2.53;;
51495;SDS011;37572;52.094;4.870;2023-03-23T15:54:45;8.38;;;2.08;;
51495;SDS011;37572;52.094;4.870;2023-03-23T15:57:10;9.65;;;1.67;;
51495;SDS011;37572;52.094;4.870;2023-03-23T15:59:35;10.95;;;2.28;;
51495;SDS011;37572;52.094;4.870;2023-03-23T16:02:01;5.97;;;2.10;;
51495;SDS011;37572;52.094;4.870;2023-03-23T16:04:26;10.10;;;1.90;;
51495;SDS011;37572;52.094;4.870;2023-03-23T16:06:52;10.50;;;2.45;;
51495;SDS011;37572;52.094;4.870;2023-03-23T16:09:19;7.20;;;1.90;;
51495;SDS011;37572;52.094;4.870;2023-03-23T16:11:44;10.93;;;2.13;;
51495;SDS011;37572;52.094;4.870;2023-03-23T16:14:10;11.27;;;2.17;;
51495;SDS011;37572;52.094;4.870;2023-03-23T16:16:40;7.13;;;1.70;;
51495;SDS011;37572;52.094;4.870;2023-03-23T16:19:06;9.30;;;2.38;;
51495;SDS011;37572;52.094;4.870;2023-03-23T16:21:31;8.25;;;2.08;;
51495;SDS011;37572;52.094;4.870;2023-03-23T16:23:56;11.33;;;2.47;;
51495;SDS011;37572;52.094;4.870;2023-03-23T16:26:21;10.00;;;2.20;;
51495;SDS011;37572;52.094;4.870;2023-03-23T16:28:47;9.20;;;2.73;;
51495;SDS011;37572;52.094;4.870;2023-03-23T16:31:12;13.00;;;2.03;;
51495;SDS011;37572;52.094;4.870;2023-03-23T16:33:37;6.00;;;1.67;;
51495;SDS011;37572;52.094;4.870;2023-03-23T16:36:03;9.67;;;2.10;;
51495;SDS011;37572;52.094;4.870;2023-03-23T16:38:28;11.43;;;2.50;;
51495;SDS011;37572;52.094;4.870;2023-03-23T16:40:53;8.83;;;1.77;;
51495;SDS011;37572;52.094;4.870;2023-03-23T16:43:19;13.07;;;2.43;;